Time;durP1;ratioP1;P1;durP2;ratioP2;P2;SDS_P1;SDS_P2;PMS_P1;PMS_P2;Temp;Humidity;BMP_temperature;BMP_pressure;BME280_temperature;BME280_humidity;BME280_pressure;Samples;Min_cycle;Max_cycle;Signal;HPM_P1;HPM_P2
2023/12/23 00:01:00;;;;;;;;;;;4.70;99.90;;;;;;5069509;28;19924;-77
2023/12/23 00:03:26;;;;;;;;;;;4.70;99.90;;;;;;5071594;28;19913;-76
2023/12/23 00:05:53;;;;;;;;;;;4.70;99.90;;;;;;5071018;28;19924;-77
2023/12/23 00:08:18;;;;;;;;;;;4.70;99.90;;;;;;5071997;28;19919;-77
2023/12/23 00:10:44;;;;;;;;;;;4.70;99.90;;;;;;5069305;28;19921;-78
2023/12/23 00:13:10;;;;;;;;;;;4.70;99.90;;;;;;5067928;28;19928;-76
2023/12/23 00:15:35;;;;;;;;;;;4.70;99.90;;;;;;5044305;28;19920;-78
2023/12/23 00:18:01;;;;;;;;;;;4.70;99.90;;;;;;5049386;28;19916;-77
2023/12/23 00:20:27;;;;;;;;;;;4.70;99.90;;;;;;5075839;28;19924;-77
2023/12/23 00:22:52;;;;;;;;;;;4.70;99.90;;;;;;5062937;28;19917;-76
2023/12/23 00:25:18;;;;;;;;;;;4.70;99.90;;;;;;5069507;28;19917;-77
2023/12/23 00:27:44;;;;;;;;;;;4.60;99.90;;;;;;5069039;28;19939;-77
2023/12/23 00:30:13;;;;;;;;;;;4.60;99.90;;;;;;5066888;28;19921;-77
2023/12/23 00:32:40;;;;;;;;;;;4.60;99.90;;;;;;5067796;28;19996;-76
2023/12/23 00:35:07;;;;;;;;;;;4.60;99.90;;;;;;5070798;28;20072;-76
2023/12/23 00:37:33;;;;;;;;;;;4.60;99.90;;;;;;5057272;28;20406;-77
2023/12/23 00:39:58;;;;;;;;;;;4.60;99.90;;;;;;5073521;28;19912;-77
2023/12/23 00:42:24;;;;;;;;;;;4.60;99.90;;;;;;5048483;28;19948;-76
2023/12/23 00:44:50;;;;;;;;;;;4.60;99.90;;;;;;5068541;28;19916;-76
2023/12/23 00:47:15;;;;;;;;;;;4.60;99.90;;;;;;5053424;28;22230;-76
2023/12/23 00:49:41;;;;;;;;;;;4.50;99.90;;;;;;5068274;28;19921;-76
2023/12/23 00:52:07;;;;;;;;;;;4.60;99.90;;;;;;5067929;28;19927;-77
2023/12/23 00:54:32;;;;;;;;;;;4.50;99.90;;;;;;5054078;28;20007;-77
2023/12/23 00:56:58;;;;;;;;;;;4.60;99.90;;;;;;5070077;28;19920;-77
2023/12/23 00:59:24;;;;;;;;;;;4.60;99.90;;;;;;5073259;28;20465;-77
2023/12/23 01:01:50;;;;;;;;;;;4.50;99.90;;;;;;5068534;28;19920;-78
2023/12/23 01:04:16;;;;;;;;;;;4.50;99.90;;;;;;5056031;28;19921;-77
2023/12/23 01:06:42;;;;;;;;;;;4.50;99.90;;;;;;5043729;28;19917;-75
2023/12/23 01:09:07;;;;;;;;;;;4.40;99.90;;;;;;5064983;28;19927;-76
2023/12/23 01:11:33;;;;;;;;;;;4.40;99.90;;;;;;5061790;28;19917;-76
2023/12/23 01:13:58;;;;;;;;;;;4.40;99.90;;;;;;5037938;28;20474;-76
2023/12/23 01:16:24;;;;;;;;;;;4.30;99.90;;;;;;5048876;28;19999;-76
2023/12/23 01:18:50;;;;;;;;;;;4.30;99.90;;;;;;5041779;28;19912;-76
2023/12/23 01:21:15;;;;;;;;;;;4.30;99.90;;;;;;5049160;28;19917;-76
2023/12/23 01:23:41;;;;;;;;;;;4.30;99.90;;;;;;5067702;28;19924;-76
2023/12/23 01:26:08;;;;;;;;;;;4.30;99.90;;;;;;5061754;28;19923;-76
2023/12/23 01:28:34;;;;;;;;;;;4.30;99.90;;;;;;5046489;28;19920;-74
2023/12/23 01:30:59;;;;;;;;;;;4.30;99.90;;;;;;5063310;28;20383;-76
2023/12/23 01:33:25;;;;;;;;;;;4.30;99.90;;;;;;5068109;28;20019;-76
2023/12/23 01:35:50;;;;;;;;;;;4.30;99.90;;;;;;5067030;28;19928;-75
2023/12/23 01:38:16;;;;;;;;;;;4.30;99.90;;;;;;5051647;28;20326;-75
2023/12/23 01:40:42;;;;;;;;;;;4.30;99.90;;;;;;5065166;28;19920;-75
2023/12/23 01:43:07;;;;;;;;;;;4.20;99.90;;;;;;5050679;28;20402;-75
2023/12/23 01:45:33;;;;;;;;;;;4.20;99.90;;;;;;5029403;28;20034;-75
2023/12/23 01:48:00;;;;;;;;;;;4.20;99.90;;;;;;5062930;28;19961;-75
2023/12/23 01:50:26;;;;;;;;;;;4.20;99.90;;;;;;5044771;28;19920;-74
2023/12/23 01:52:53;;;;;;;;;;;4.10;99.90;;;;;;5065584;28;19921;-75
2023/12/23 01:55:19;;;;;;;;;;;4.10;99.90;;;;;;5064855;28;20280;-75
2023/12/23 01:57:44;;;;;;;;;;;4.10;99.90;;;;;;5045340;28;19924;-75
2023/12/23 02:00:10;;;;;;;;;;;4.00;99.90;;;;;;5065196;28;19927;-74
2023/12/23 02:02:40;;;;;;;;;;;4.00;99.90;;;;;;5056915;28;20414;-74
2023/12/23 02:05:07;;;;;;;;;;;4.00;99.90;;;;;;5064599;28;19920;-73
2023/12/23 02:07:33;;;;;;;;;;;4.00;99.90;;;;;;5043974;28;20012;-75
2023/12/23 02:09:59;;;;;;;;;;;4.00;99.90;;;;;;5032993;28;19920;-74
2023/12/23 02:12:34;;;;;;;;;;;4.00;99.90;;;;;;5062869;28;19919;-75
2023/12/23 02:15:09;;;;;;;;;;;4.00;99.90;;;;;;5060730;28;19917;-75
2023/12/23 02:17:37;;;;;;;;;;;4.00;99.90;;;;;;5061849;28;19916;-75
2023/12/23 02:20:03;;;;;;;;;;;4.00;99.90;;;;;;5051674;28;19992;-75
2023/12/23 02:22:29;;;;;;;;;;;4.00;99.90;;;;;;5063928;28;20326;-74
2023/12/23 02:24:55;;;;;;;;;;;3.90;99.90;;;;;;5067662;28;19924;-75
2023/12/23 02:27:27;;;;;;;;;;;4.00;99.90;;;;;;5049680;28;19916;-76
2023/12/23 02:29:53;;;;;;;;;;;3.90;99.90;;;;;;5068569;28;20424;-76
2023/12/23 02:32:19;;;;;;;;;;;3.90;99.90;;;;;;5057190;28;20043;-76
2023/12/23 02:34:45;;;;;;;;;;;3.90;99.90;;;;;;5068657;28;19920;-75
2023/12/23 02:37:11;;;;;;;;;;;3.90;99.90;;;;;;5062743;28;20292;-75
2023/12/23 02:39:36;;;;;;;;;;;3.80;99.90;;;;;;5051006;28;19923;-75
2023/12/23 02:42:02;;;;;;;;;;;3.80;99.90;;;;;;5045061;28;20015;-75
2023/12/23 02:44:27;;;;;;;;;;;3.80;99.90;;;;;;5047240;28;19921;-75
2023/12/23 02:46:53;;;;;;;;;;;3.90;99.90;;;;;;5064188;28;19917;-76
2023/12/23 02:49:19;;;;;;;;;;;3.90;99.90;;;;;;5064836;28;20402;-75
2023/12/23 02:51:44;;;;;;;;;;;3.90;99.90;;;;;;5063274;28;19921;-75
2023/12/23 02:54:10;;;;;;;;;;;3.90;99.90;;;;;;5063774;28;21229;-76
2023/12/23 02:56:35;;;;;;;;;;;3.90;99.90;;;;;;5060606;28;19917;-75
2023/12/23 02:59:01;;;;;;;;;;;3.90;99.90;;;;;;5065071;28;20330;-73
2023/12/23 03:01:27;;;;;;;;;;;3.80;99.90;;;;;;5062539;28;19980;-76
2023/12/23 03:03:52;;;;;;;;;;;3.80;99.90;;;;;;5052006;28;19961;-75
2023/12/23 03:06:18;;;;;;;;;;;3.80;99.90;;;;;;5040594;28;19917;-75
2023/12/23 03:08:44;;;;;;;;;;;3.80;99.90;;;;;;5045468;28;20007;-76
2023/12/23 03:11:10;;;;;;;;;;;3.80;99.90;;;;;;5063260;28;20392;-75
2023/12/23 03:13:35;;;;;;;;;;;3.80;99.90;;;;;;5062264;28;19916;-75
2023/12/23 03:16:01;;;;;;;;;;;3.80;99.90;;;;;;5065692;28;19920;-75
2023/12/23 03:18:26;;;;;;;;;;;3.80;99.90;;;;;;5064589;28;19916;-75
2023/12/23 03:20:52;;;;;;;;;;;3.80;99.90;;;;;;5068285;28;20015;-75
2023/12/23 03:23:17;;;;;;;;;;;3.80;99.90;;;;;;5059997;28;19928;-76
2023/12/23 03:25:43;;;;;;;;;;;3.80;99.90;;;;;;5063587;28;19921;-76
2023/12/23 03:28:09;;;;;;;;;;;3.80;99.90;;;;;;5063127;28;19920;-75
2023/12/23 03:30:35;;;;;;;;;;;3.80;99.90;;;;;;5055279;28;19931;-75
2023/12/23 03:33:00;;;;;;;;;;;3.70;99.90;;;;;;5063455;28;19916;-75
2023/12/23 03:35:26;;;;;;;;;;;3.80;99.90;;;;;;5060308;28;19971;-76
2023/12/23 03:37:51;;;;;;;;;;;3.80;99.90;;;;;;5049375;28;20035;-76
2023/12/23 03:40:17;;;;;;;;;;;3.80;99.90;;;;;;5044802;28;19932;-76
2023/12/23 03:42:43;;;;;;;;;;;3.80;99.90;;;;;;5048610;28;20455;-76
2023/12/23 03:45:08;;;;;;;;;;;3.80;99.90;;;;;;5062730;28;19921;-76
2023/12/23 03:47:34;;;;;;;;;;;3.70;99.90;;;;;;5062791;28;19908;-75
2023/12/23 03:50:03;;;;;;;;;;;3.70;99.90;;;;;;5063772;28;19932;-76
2023/12/23 03:52:28;;;;;;;;;;;3.70;99.90;;;;;;5059830;28;20644;-76
2023/12/23 03:54:54;;;;;;;;;;;3.70;99.90;;;;;;5047158;28;19977;-76
2023/12/23 03:57:20;;;;;;;;;;;3.80;99.90;;;;;;5063277;28;19952;-76
2023/12/23 03:59:46;;;;;;;;;;;3.70;99.90;;;;;;5066228;28;20395;-77
2023/12/23 04:02:11;;;;;;;;;;;3.80;99.90;;;;;;5052353;28;19924;-77
2023/12/23 04:04:40;;;;;;;;;;;3.70;99.90;;;;;;5055099;28;19974;-77
2023/12/23 04:07:06;;;;;;;;;;;3.70;99.90;;;;;;5050406;28;19924;-77
2023/12/23 04:09:32;;;;;;;;;;;3.70;99.90;;;;;;5048108;28;19931;-77
2023/12/23 04:11:58;;;;;;;;;;;3.70;99.90;;;;;;5066658;28;19921;-77
2023/12/23 04:14:32;;;;;;;;;;;3.70;99.90;;;;;;5044754;28;19913;-77
2023/12/23 04:16:58;;;;;;;;;;;3.80;99.90;;;;;;5033780;28;20384;-77
2023/12/23 04:19:23;;;;;;;;;;;3.80;99.90;;;;;;5050804;28;19924;-77
2023/12/23 04:21:49;;;;;;;;;;;3.80;99.90;;;;;;5061374;28;19962;-76
2023/12/23 04:24:15;;;;;;;;;;;3.80;99.90;;;;;;5063420;28;20395;-77
2023/12/23 04:26:41;;;;;;;;;;;3.80;99.90;;;;;;5048472;28;19916;-77
2023/12/23 04:29:06;;;;;;;;;;;3.80;99.90;;;;;;5062629;28;19917;-77
2023/12/23 04:31:32;;;;;;;;;;;3.80;99.90;;;;;;5064903;28;19920;-77
2023/12/23 04:33:58;;;;;;;;;;;3.90;99.90;;;;;;5045645;28;20069;-77
2023/12/23 04:36:24;;;;;;;;;;;3.90;99.90;;;;;;5051698;28;19916;-77
2023/12/23 04:38:51;;;;;;;;;;;3.90;99.90;;;;;;5047543;28;20380;-77
2023/12/23 04:41:16;;;;;;;;;;;3.90;99.90;;;;;;5052865;28;19917;-77
2023/12/23 04:43:42;;;;;;;;;;;3.90;99.90;;;;;;5065405;28;19921;-77
2023/12/23 04:46:08;;;;;;;;;;;3.90;99.90;;;;;;5042007;28;19924;-77
2023/12/23 04:48:33;;;;;;;;;;;3.90;99.90;;;;;;5050534;28;19916;-77
2023/12/23 04:50:59;;;;;;;;;;;3.90;99.90;;;;;;5048217;28;19925;-77
2023/12/23 04:53:24;;;;;;;;;;;3.90;99.90;;;;;;5053267;28;19916;-77
2023/12/23 04:55:50;;;;;;;;;;;3.90;99.90;;;;;;5044009;28;20352;-77
2023/12/23 04:58:35;;;;;;;;;;;3.90;99.90;;;;;;5068747;28;20146;-77
2023/12/23 05:01:01;;;;;;;;;;;3.90;99.90;;;;;;5048342;28;19952;-77
2023/12/23 05:03:31;;;;;;;;;;;3.90;99.90;;;;;;5044008;28;19924;-77
2023/12/23 05:05:57;;;;;;;;;;;3.90;99.90;;;;;;5059156;28;20358;-77
2023/12/23 05:08:22;;;;;;;;;;;3.90;99.90;;;;;;5049952;28;19956;-77
2023/12/23 05:10:48;;;;;;;;;;;3.90;99.90;;;;;;5066201;28;20345;-77
2023/12/23 05:13:14;;;;;;;;;;;3.90;99.90;;;;;;5064781;28;20360;-77
2023/12/23 05:15:40;;;;;;;;;;;3.90;99.90;;;;;;5052339;28;20360;-77
2023/12/23 05:18:06;;;;;;;;;;;3.90;99.90;;;;;;5049350;28;19912;-77
2023/12/23 05:20:32;;;;;;;;;;;3.90;99.90;;;;;;5065227;28;20043;-77
2023/12/23 05:22:57;;;;;;;;;;;3.80;99.90;;;;;;5048458;28;19917;-77
2023/12/23 05:25:23;;;;;;;;;;;3.80;99.90;;;;;;5046677;28;19915;-77
2023/12/23 05:27:49;;;;;;;;;;;3.80;99.90;;;;;;5045667;28;20372;-78
2023/12/23 05:30:15;;;;;;;;;;;3.80;99.90;;;;;;5062052;28;19943;-77
2023/12/23 05:32:41;;;;;;;;;;;3.80;99.90;;;;;;5066617;28;20272;-77
2023/12/23 05:35:07;;;;;;;;;;;3.80;99.90;;;;;;5067727;28;19974;-77
2023/12/23 05:37:33;;;;;;;;;;;3.80;99.90;;;;;;5066446;28;19951;-77
2023/12/23 05:39:59;;;;;;;;;;;3.80;99.90;;;;;;5068320;28;19921;-77
2023/12/23 05:42:25;;;;;;;;;;;3.80;99.90;;;;;;5063347;28;20042;-77
2023/12/23 05:44:51;;;;;;;;;;;3.80;99.90;;;;;;5060450;28;20398;-77
2023/12/23 05:47:17;;;;;;;;;;;3.80;99.90;;;;;;5058914;28;20005;-77
2023/12/23 05:49:42;;;;;;;;;;;3.80;99.90;;;;;;5048731;28;20299;-77
2023/12/23 05:52:08;;;;;;;;;;;3.80;99.90;;;;;;5066539;28;20023;-77
2023/12/23 05:54:33;;;;;;;;;;;3.80;99.90;;;;;;5065251;28;20383;-77
2023/12/23 05:56:59;;;;;;;;;;;3.80;99.90;;;;;;5051269;28;19924;-78
2023/12/23 05:59:25;;;;;;;;;;;3.80;99.90;;;;;;5061493;28;19921;-77
2023/12/23 06:01:52;;;;;;;;;;;3.80;99.90;;;;;;5062508;28;19917;-77
2023/12/23 06:04:17;;;;;;;;;;;3.80;99.90;;;;;;5063008;28;19920;-76
2023/12/23 06:06:43;;;;;;;;;;;3.80;99.90;;;;;;5043630;28;19927;-76
2023/12/23 06:09:09;;;;;;;;;;;3.80;99.90;;;;;;5063429;28;20323;-78
2023/12/23 06:11:35;;;;;;;;;;;3.80;99.90;;;;;;5061277;28;19956;-77
2023/12/23 06:14:00;;;;;;;;;;;3.80;99.90;;;;;;5064346;28;20321;-77
2023/12/23 06:16:26;;;;;;;;;;;3.80;99.90;;;;;;5049526;28;19932;-77
2023/12/23 06:18:52;;;;;;;;;;;3.80;99.90;;;;;;5052153;28;19955;-77
2023/12/23 06:21:17;;;;;;;;;;;3.80;99.90;;;;;;5066450;28;19960;-78
2023/12/23 06:23:43;;;;;;;;;;;3.80;99.90;;;;;;5066097;28;19921;-78
2023/12/23 06:26:12;;;;;;;;;;;3.80;99.90;;;;;;5064702;28;19913;-77
2023/12/23 06:28:37;;;;;;;;;;;3.80;99.90;;;;;;5068840;28;19984;-77
2023/12/23 06:31:03;;;;;;;;;;;3.80;99.90;;;;;;5069311;28;20391;-77
2023/12/23 06:33:29;;;;;;;;;;;3.80;99.90;;;;;;5066711;28;20362;-77
2023/12/23 06:35:54;;;;;;;;;;;3.80;99.90;;;;;;5048544;28;19969;-77
2023/12/23 06:38:20;;;;;;;;;;;3.80;99.90;;;;;;5065317;28;20296;-77
2023/12/23 06:40:45;;;;;;;;;;;3.70;99.90;;;;;;5062390;28;20376;-77
2023/12/23 06:43:11;;;;;;;;;;;3.70;99.90;;;;;;5062707;28;20003;-77
2023/12/23 06:45:37;;;;;;;;;;;3.70;99.90;;;;;;5068527;28;20352;-77
2023/12/23 06:48:02;;;;;;;;;;;3.70;99.90;;;;;;5065044;28;20277;-77
2023/12/23 06:50:28;;;;;;;;;;;3.70;99.90;;;;;;5064595;28;19939;-77
2023/12/23 06:52:53;;;;;;;;;;;3.70;99.90;;;;;;5063559;28;19927;-77
2023/12/23 06:55:19;;;;;;;;;;;3.70;99.90;;;;;;5062991;28;19916;-77
2023/12/23 06:57:45;;;;;;;;;;;3.70;99.90;;;;;;5065085;28;20427;-77
2023/12/23 07:00:11;;;;;;;;;;;3.70;99.90;;;;;;5064658;28;19936;-77
2023/12/23 07:02:37;;;;;;;;;;;3.80;99.90;;;;;;5063343;28;19931;-77
2023/12/23 07:05:03;;;;;;;;;;;3.80;99.90;;;;;;5061582;28;19959;-76
2023/12/23 07:07:28;;;;;;;;;;;3.80;99.90;;;;;;5048736;28;19970;-77
2023/12/23 07:09:54;;;;;;;;;;;3.80;99.90;;;;;;5066697;28;19920;-77
2023/12/23 07:12:20;;;;;;;;;;;3.90;99.90;;;;;;5061367;28;19956;-77
2023/12/23 07:14:45;;;;;;;;;;;3.90;99.90;;;;;;5066045;28;19920;-76
2023/12/23 07:17:11;;;;;;;;;;;4.00;99.90;;;;;;5055512;28;19924;-76
2023/12/23 07:19:37;;;;;;;;;;;4.00;99.90;;;;;;5072881;28;20379;-78
2023/12/23 07:22:23;;;;;;;;;;;4.10;99.90;;;;;;5068403;28;19917;-77
2023/12/23 07:24:48;;;;;;;;;;;4.10;99.90;;;;;;5072238;28;19917;-78
2023/12/23 07:27:14;;;;;;;;;;;4.20;99.90;;;;;;5074137;28;19916;-78
2023/12/23 07:29:40;;;;;;;;;;;4.30;99.90;;;;;;5070841;28;19924;-78
2023/12/23 07:32:08;;;;;;;;;;;4.40;99.90;;;;;;5066908;28;19923;-78
2023/12/23 07:34:34;;;;;;;;;;;4.50;99.90;;;;;;5071962;28;19927;-78
2023/12/23 07:37:00;;;;;;;;;;;4.50;99.90;;;;;;5056753;28;20011;-77
2023/12/23 07:39:25;;;;;;;;;;;4.70;99.90;;;;;;5069712;28;20022;-78
2023/12/23 07:41:51;;;;;;;;;;;4.70;99.90;;;;;;5061454;28;19978;-79
2023/12/23 07:44:17;;;;;;;;;;;4.80;99.90;;;;;;5065159;28;19917;-78
2023/12/23 07:46:42;;;;;;;;;;;4.80;99.90;;;;;;5068253;28;20364;-77
2023/12/23 07:49:08;;;;;;;;;;;4.90;99.90;;;;;;5046770;28;20315;-77
2023/12/23 07:51:33;;;;;;;;;;;4.90;99.90;;;;;;4993982;28;1991672;-76
2023/12/23 07:53:59;;;;;;;;;;;5.00;99.90;;;;;;5068464;28;19920;-76
2023/12/23 07:56:26;;;;;;;;;;;5.10;99.90;;;;;;5070162;28;19924;-76
2023/12/23 07:58:52;;;;;;;;;;;5.10;99.90;;;;;;5066339;28;19916;-76
2023/12/23 08:01:18;;;;;;;;;;;5.20;99.90;;;;;;5044930;28;19939;-77
2023/12/23 08:03:43;;;;;;;;;;;5.20;99.90;;;;;;5060956;28;20304;-77
2023/12/23 08:06:09;;;;;;;;;;;5.30;99.90;;;;;;5065807;28;19921;-77
2023/12/23 08:08:35;;;;;;;;;;;5.30;99.90;;;;;;5052784;28;19921;-78
2023/12/23 08:11:00;;;;;;;;;;;5.30;99.90;;;;;;5046215;28;19928;-78
2023/12/23 08:13:29;;;;;;;;;;;5.40;99.90;;;;;;5070703;28;19920;-77
2023/12/23 08:15:55;;;;;;;;;;;5.40;99.90;;;;;;5067732;28;19978;-77
2023/12/23 08:18:20;;;;;;;;;;;5.40;99.90;;;;;;5066107;28;19924;-78
2023/12/23 08:20:46;;;;;;;;;;;5.50;99.90;;;;;;5061863;28;19921;-79
2023/12/23 08:23:12;;;;;;;;;;;5.50;99.90;;;;;;5068845;28;20025;-78
2023/12/23 08:25:37;;;;;;;;;;;5.50;99.90;;;;;;5064928;28;20119;-78
2023/12/23 08:28:03;;;;;;;;;;;5.50;99.90;;;;;;5066766;28;20300;-79
2023/12/23 08:30:29;;;;;;;;;;;5.50;99.90;;;;;;5049373;28;20031;-78
2023/12/23 08:32:54;;;;;;;;;;;5.50;99.90;;;;;;5051496;28;19917;-78
2023/12/23 08:35:21;;;;;;;;;;;5.60;99.90;;;;;;5066379;28;19960;-77
2023/12/23 08:37:46;;;;;;;;;;;5.60;99.90;;;;;;5067289;28;19913;-77
2023/12/23 08:40:12;;;;;;;;;;;5.60;99.90;;;;;;5069133;28;19923;-77
2023/12/23 08:42:38;;;;;;;;;;;5.70;99.90;;;;;;5068277;28;19924;-78
2023/12/23 08:45:04;;;;;;;;;;;5.70;99.90;;;;;;5063765;28;19927;-78
2023/12/23 08:47:32;;;;;;;;;;;5.70;99.90;;;;;;5066537;28;19920;-77
2023/12/23 08:49:58;;;;;;;;;;;5.80;99.90;;;;;;5054170;28;19928;-78
2023/12/23 08:52:24;;;;;;;;;;;5.80;99.90;;;;;;5065014;28;19943;-77
2023/12/23 08:54:49;;;;;;;;;;;5.80;99.90;;;;;;5067542;28;20299;-76
2023/12/23 08:57:15;;;;;;;;;;;5.80;99.90;;;;;;5059260;28;20009;-76
2023/12/23 08:59:40;;;;;;;;;;;5.90;99.90;;;;;;5066997;28;19917;-75
2023/12/23 09:02:06;;;;;;;;;;;5.90;99.90;;;;;;5060898;28;19925;-76
2023/12/23 09:04:32;;;;;;;;;;;5.90;99.90;;;;;;5061146;28;20059;-76
2023/12/23 09:06:58;;;;;;;;;;;5.90;99.90;;;;;;5063250;28;19931;-76
2023/12/23 09:09:23;;;;;;;;;;;5.90;99.90;;;;;;5048307;28;19909;-76
2023/12/23 09:11:49;;;;;;;;;;;6.00;99.90;;;;;;5066969;28;19916;-77
2023/12/23 09:14:15;;;;;;;;;;;6.00;99.90;;;;;;5063732;28;19925;-77
2023/12/23 09:16:41;;;;;;;;;;;5.90;99.90;;;;;;5067069;28;19982;-78
2023/12/23 09:19:13;;;;;;;;;;;6.00;99.90;;;;;;5071044;28;19935;-77
2023/12/23 09:21:41;;;;;;;;;;;6.00;99.90;;;;;;5030420;28;19913;-76
2023/12/23 09:24:06;;;;;;;;;;;6.00;99.90;;;;;;5067189;28;19923;-77
2023/12/23 09:26:35;;;;;;;;;;;6.00;99.90;;;;;;5066392;28;19927;-77
2023/12/23 09:29:01;;;;;;;;;;;6.10;99.90;;;;;;5065484;28;19965;-77
2023/12/23 09:31:26;;;;;;;;;;;6.10;99.90;;;;;;5060381;28;19928;-77
2023/12/23 09:33:52;;;;;;;;;;;6.10;99.90;;;;;;5064408;28;19916;-78
2023/12/23 09:36:18;;;;;;;;;;;6.10;99.90;;;;;;5062103;28;19916;-78
2023/12/23 09:38:43;;;;;;;;;;;6.10;99.90;;;;;;5058697;28;19920;-76
2023/12/23 09:41:09;;;;;;;;;;;6.10;99.90;;;;;;5061567;28;19920;-77
2023/12/23 09:43:34;;;;;;;;;;;6.20;99.90;;;;;;5064126;28;20015;-77
2023/12/23 09:46:03;;;;;;;;;;;6.10;99.90;;;;;;5068338;28;19923;-79
2023/12/23 09:48:29;;;;;;;;;;;6.10;99.90;;;;;;5044288;28;20295;-76
2023/12/23 09:50:54;;;;;;;;;;;6.10;99.90;;;;;;5061626;28;19921;-77
2023/12/23 09:53:21;;;;;;;;;;;6.20;99.90;;;;;;5054670;28;20318;-76
2023/12/23 09:55:46;;;;;;;;;;;6.20;99.90;;;;;;5063136;28;19920;-77
2023/12/23 09:58:13;;;;;;;;;;;6.20;99.90;;;;;;5053915;28;19921;-77
2023/12/23 10:00:39;;;;;;;;;;;6.20;99.90;;;;;;5058895;28;19931;-77
2023/12/23 10:03:05;;;;;;;;;;;6.20;99.90;;;;;;5060961;28;19921;-76
2023/12/23 10:05:31;;;;;;;;;;;6.20;99.90;;;;;;5065012;28;20280;-77
2023/12/23 10:07:59;;;;;;;;;;;6.20;99.90;;;;;;5062230;28;19973;-75
2023/12/23 10:10:25;;;;;;;;;;;6.20;99.90;;;;;;5066227;28;19925;-77
2023/12/23 10:12:51;;;;;;;;;;;6.20;99.90;;;;;;5059305;28;20426;-77
2023/12/23 10:15:17;;;;;;;;;;;6.10;99.90;;;;;;5063736;28;19973;-77
2023/12/23 10:17:43;;;;;;;;;;;6.10;99.90;;;;;;5066900;28;19927;-77
2023/12/23 10:20:15;;;;;;;;;;;6.10;99.90;;;;;;5068374;28;19995;-76
2023/12/23 10:22:42;;;;;;;;;;;6.20;99.90;;;;;;5068124;28;19917;-77
2023/12/23 10:25:07;;;;;;;;;;;6.20;99.90;;;;;;5066418;28;19998;-77
2023/12/23 10:27:34;;;;;;;;;;;6.20;99.90;;;;;;5050534;28;20059;-78
2023/12/23 10:30:02;;;;;;;;;;;6.20;99.90;;;;;;5061300;28;19924;-76
2023/12/23 10:32:32;;;;;;;;;;;6.20;99.90;;;;;;5043994;28;20280;-76
2023/12/23 10:34:59;;;;;;;;;;;6.20;99.90;;;;;;5054366;28;19917;-77
2023/12/23 10:37:25;;;;;;;;;;;6.30;99.90;;;;;;5057315;28;20015;-77
2023/12/23 10:40:00;;;;;;;;;;;6.30;99.90;;;;;;5043735;28;20006;-76
2023/12/23 10:42:26;;;;;;;;;;;6.30;99.90;;;;;;5060578;28;19993;-76
2023/12/23 10:44:53;;;;;;;;;;;6.30;99.90;;;;;;5064407;28;19912;-76
2023/12/23 10:47:18;;;;;;;;;;;6.30;99.90;;;;;;5065423;28;20000;-76
2023/12/23 10:49:45;;;;;;;;;;;6.30;99.90;;;;;;5061938;28;19976;-81
2023/12/23 10:52:11;;;;;;;;;;;6.30;99.90;;;;;;5060751;28;19942;-77
2023/12/23 10:54:37;;;;;;;;;;;6.30;99.90;;;;;;5065768;28;19921;-78
2023/12/23 10:57:04;;;;;;;;;;;6.30;99.90;;;;;;5049778;28;19938;-78
2023/12/23 10:59:29;;;;;;;;;;;6.30;99.90;;;;;;5065063;28;19966;-76
2023/12/23 11:01:56;;;;;;;;;;;6.30;99.90;;;;;;5063342;28;19916;-77
2023/12/23 11:04:24;;;;;;;;;;;6.30;99.90;;;;;;5062786;28;19947;-77
2023/12/23 11:06:52;;;;;;;;;;;6.30;99.90;;;;;;5067132;28;20007;-77
2023/12/23 11:09:19;;;;;;;;;;;6.20;99.90;;;;;;5066666;28;20171;-74
2023/12/23 11:11:45;;;;;;;;;;;6.30;99.90;;;;;;5061617;28;19912;-77
2023/12/23 11:14:10;;;;;;;;;;;6.20;99.90;;;;;;5054324;28;19918;-77
2023/12/23 11:16:42;;;;;;;;;;;6.20;99.90;;;;;;5065966;28;20023;-77
2023/12/23 11:19:08;;;;;;;;;;;6.20;99.90;;;;;;5063795;28;19951;-77
2023/12/23 11:21:36;;;;;;;;;;;6.30;99.90;;;;;;5065610;28;19952;-76
2023/12/23 11:24:02;;;;;;;;;;;6.30;99.90;;;;;;5067656;28;19926;-77
2023/12/23 11:26:41;;;;;;;;;;;6.30;99.90;;;;;;5064327;28;19925;-76
2023/12/23 11:29:07;;;;;;;;;;;6.30;99.90;;;;;;5064822;28;19970;-76
2023/12/23 11:31:33;;;;;;;;;;;6.30;99.90;;;;;;5047786;28;19916;-76
2023/12/23 11:33:59;;;;;;;;;;;6.30;99.90;;;;;;5068251;28;20395;-77
2023/12/23 11:36:25;;;;;;;;;;;6.30;99.90;;;;;;5063787;28;20315;-75
2023/12/23 11:38:51;;;;;;;;;;;6.30;99.90;;;;;;5069105;28;19935;-76
2023/12/23 11:41:17;;;;;;;;;;;6.30;99.90;;;;;;5064807;28;19922;-75
2023/12/23 11:43:44;;;;;;;;;;;6.30;99.90;;;;;;5069854;28;19920;-78
2023/12/23 11:46:09;;;;;;;;;;;6.30;99.90;;;;;;5064361;28;20019;-78
2023/12/23 11:48:35;;;;;;;;;;;6.30;99.90;;;;;;5069322;28;20428;-76
2023/12/23 11:51:01;;;;;;;;;;;6.30;99.90;;;;;;5067161;28;20026;-75
2023/12/23 11:53:26;;;;;;;;;;;6.30;99.90;;;;;;5064670;28;19913;-76
2023/12/23 11:55:52;;;;;;;;;;;6.40;99.90;;;;;;5067628;28;19919;-74
2023/12/23 11:58:18;;;;;;;;;;;6.40;99.90;;;;;;5054173;28;19951;-76
2023/12/23 12:00:49;;;;;;;;;;;6.40;99.90;;;;;;5072025;28;20035;-75
2023/12/23 12:03:15;;;;;;;;;;;6.40;99.90;;;;;;5035490;28;20252;-77
2023/12/23 12:05:40;;;;;;;;;;;6.40;99.90;;;;;;5071873;28;20305;-78
2023/12/23 12:08:06;;;;;;;;;;;6.40;99.90;;;;;;5067963;28;19920;-78
2023/12/23 12:10:32;;;;;;;;;;;6.40;99.90;;;;;;5074506;28;19952;-78
2023/12/23 12:12:57;;;;;;;;;;;6.40;99.90;;;;;;5066519;28;20257;-78
2023/12/23 12:15:23;;;;;;;;;;;6.40;99.90;;;;;;5072961;28;19917;-77
2023/12/23 12:17:50;;;;;;;;;;;6.40;99.90;;;;;;5070104;28;19920;-77
2023/12/23 12:20:16;;;;;;;;;;;6.40;99.90;;;;;;5050835;28;19917;-77
2023/12/23 12:22:43;;;;;;;;;;;6.40;99.90;;;;;;5067595;28;20495;-77
2023/12/23 12:25:09;;;;;;;;;;;6.50;99.90;;;;;;5063630;28;19920;-77
2023/12/23 12:27:34;;;;;;;;;;;6.50;99.90;;;;;;5065428;28;19917;-77
2023/12/23 12:30:00;;;;;;;;;;;6.50;99.90;;;;;;5067899;28;20015;-75
2023/12/23 12:32:25;;;;;;;;;;;6.50;99.90;;;;;;5066178;28;19924;-76
2023/12/23 12:34:59;;;;;;;;;;;6.50;99.90;;;;;;5065220;28;19937;-76
2023/12/23 12:37:26;;;;;;;;;;;6.50;99.90;;;;;;5065206;28;19912;-77
2023/12/23 12:39:52;;;;;;;;;;;6.50;99.90;;;;;;5066553;28;19917;-76
2023/12/23 12:42:18;;;;;;;;;;;6.50;99.90;;;;;;5042364;28;19925;-77
2023/12/23 12:44:44;;;;;;;;;;;6.50;99.90;;;;;;5068138;28;19919;-78
2023/12/23 12:47:10;;;;;;;;;;;6.50;99.90;;;;;;5066730;28;19928;-79
2023/12/23 12:49:42;;;;;;;;;;;6.50;99.90;;;;;;5069160;28;20296;-79
2023/12/23 12:52:08;;;;;;;;;;;6.50;99.90;;;;;;5066756;28;19931;-77
2023/12/23 12:54:34;;;;;;;;;;;6.50;99.90;;;;;;5064974;28;19917;-77
2023/12/23 12:56:59;;;;;;;;;;;6.50;99.90;;;;;;5052413;28;19948;-76
2023/12/23 12:59:25;;;;;;;;;;;6.50;99.90;;;;;;5067967;28;20027;-75
2023/12/23 13:01:51;;;;;;;;;;;6.50;99.90;;;;;;5029400;28;19919;-75
2023/12/23 13:04:16;;;;;;;;;;;6.50;99.90;;;;;;5062652;28;19958;-75
2023/12/23 13:06:42;;;;;;;;;;;6.50;99.90;;;;;;5051501;28;19916;-78
2023/12/23 13:09:14;;;;;;;;;;;6.60;99.90;;;;;;5070456;28;19928;-77
2023/12/23 13:11:48;;;;;;;;;;;6.60;99.90;;;;;;5053610;28;19959;-78
2023/12/23 13:14:14;;;;;;;;;;;6.60;99.90;;;;;;5046875;28;19928;-78
2023/12/23 13:16:40;;;;;;;;;;;6.60;99.90;;;;;;5069480;28;19925;-78
2023/12/23 13:19:06;;;;;;;;;;;6.60;99.90;;;;;;5073800;28;19982;-79
2023/12/23 13:21:32;;;;;;;;;;;6.60;99.90;;;;;;5076602;28;20603;-77
2023/12/23 13:23:57;;;;;;;;;;;6.60;99.90;;;;;;5067127;28;19920;-77
2023/12/23 13:26:23;;;;;;;;;;;6.60;99.90;;;;;;5065244;28;20303;-77
2023/12/23 13:28:49;;;;;;;;;;;6.60;99.90;;;;;;5070681;28;20295;-78
2023/12/23 13:31:15;;;;;;;;;;;6.60;99.90;;;;;;5065071;28;19954;-78
2023/12/23 13:33:40;;;;;;;;;;;6.60;99.90;;;;;;5069528;28;20394;-78
2023/12/23 13:36:09;;;;;;;;;;;6.60;99.90;;;;;;5071427;28;19928;-78
2023/12/23 13:38:35;;;;;;;;;;;6.60;99.90;;;;;;5072614;28;19917;-78
2023/12/23 13:41:00;;;;;;;;;;;6.70;99.90;;;;;;5047890;28;19924;-78
2023/12/23 13:43:26;;;;;;;;;;;6.60;99.90;;;;;;5072735;28;20273;-75
2023/12/23 13:45:52;;;;;;;;;;;6.60;99.90;;;;;;5059783;28;20491;-77
2023/12/23 13:48:17;;;;;;;;;;;6.60;99.90;;;;;;5060472;28;20059;-76
2023/12/23 13:50:43;;;;;;;;;;;6.60;99.90;;;;;;5063706;28;19924;-77
2023/12/23 13:53:12;;;;;;;;;;;6.60;99.90;;;;;;5059569;28;19920;-77
2023/12/23 13:55:37;;;;;;;;;;;6.60;99.90;;;;;;5060837;28;20051;-77
2023/12/23 13:58:09;;;;;;;;;;;6.60;99.90;;;;;;5066979;28;20379;-78
2023/12/23 14:00:35;;;;;;;;;;;6.60;99.90;;;;;;5064034;28;19927;-77
2023/12/23 14:03:01;;;;;;;;;;;6.60;99.90;;;;;;5061990;28;20441;-77
2023/12/23 14:05:26;;;;;;;;;;;6.60;99.90;;;;;;5063007;28;20008;-78
2023/12/23 14:07:52;;;;;;;;;;;6.60;99.90;;;;;;5062344;28;20461;-78
2023/12/23 14:10:18;;;;;;;;;;;6.60;99.90;;;;;;5064431;28;19924;-78
2023/12/23 14:12:43;;;;;;;;;;;6.60;99.90;;;;;;5066404;28;19920;-78
2023/12/23 14:15:09;;;;;;;;;;;6.60;99.90;;;;;;5064647;28;20324;-77
2023/12/23 14:17:35;;;;;;;;;;;6.60;99.90;;;;;;5063608;28;19921;-78
2023/12/23 14:20:00;;;;;;;;;;;6.60;99.90;;;;;;5046828;28;20012;-77
2023/12/23 14:22:26;;;;;;;;;;;6.60;99.90;;;;;;5062678;28;19916;-78
2023/12/23 14:24:52;;;;;;;;;;;6.60;99.90;;;;;;5063326;28;19917;-78